Time;durP1;ratioP1;P1;durP2;ratioP2;P2;SDS_P1;SDS_P2;PMS_P1;PMS_P2;Temp;Humidity;BMP_temperature;BMP_pressure;BME280_temperature;BME280_humidity;BME280_pressure;Samples;Min_cycle;Max_cycle;Signal;HPM_P1;HPM_P2
2022/10/30 00:01:03;;;;;;;5.45;3.63;;;;;;;16.05;68.53;102180.09;5051142;28;20124;-81
2022/10/30 00:03:29;;;;;;;5.63;3.92;;;;;;;16.03;68.47;102179.13;5056986;28;20029;-82
2022/10/30 00:05:54;;;;;;;5.22;4.15;;;;;;;16.01;68.50;102175.50;5050669;28;20025;-81
2022/10/30 00:08:21;;;;;;;5.95;3.83;;;;;;;16.07;68.41;102188.09;5044718;28;20046;-81
2022/10/30 00:10:49;;;;;;;6.60;4.15;;;;;;;16.03;68.31;102170.31;5042049;28;20060;-81
2022/10/30 00:13:15;;;;;;;7.03;4.55;;;;;;;15.96;68.54;102165.50;5049886;28;20078;-81
2022/10/30 00:15:49;;;;;;;6.90;4.88;;;;;;;15.99;68.60;102174.50;5050551;28;20028;-83
2022/10/30 00:18:15;;;;;;;7.82;4.30;;;;;;;15.98;68.30;102163.88;5032713;28;20032;-82
2022/10/30 00:20:40;;;;;;;6.40;4.18;;;;;;;15.98;68.27;102164.81;5019610;28;20032;-82
2022/10/30 00:23:06;;;;;;;6.15;4.18;;;;;;;15.98;68.42;102163.88;5034724;28;20041;-82
2022/10/30 00:25:34;;;;;;;6.13;4.07;;;;;;;16.04;68.38;102169.47;5040494;28;20117;-82
2022/10/30 00:27:59;;;;;;;5.90;4.40;;;;;;;16.03;68.35;102170.31;5022318;28;20402;-82
2022/10/30 00:30:25;;;;;;;7.45;4.30;;;;;;;16.00;68.47;102171.06;5038566;28;20025;-82
2022/10/30 00:32:50;;;;;;;5.53;4.15;;;;;;;16.02;68.32;102161.50;5043813;28;20033;-82
2022/10/30 00:35:16;;;;;;;5.82;4.07;;;;;;;16.03;68.37;102165.94;5050215;28;20055;-82
2022/10/30 00:37:41;;;;;;;5.65;4.10;;;;;;;16.00;68.23;102157.88;5029912;28;20045;-82
2022/10/30 00:40:15;;;;;;;4.63;3.83;;;;;;;16.03;68.47;102159.78;5048434;28;20383;-82
2022/10/30 00:42:40;;;;;;;6.03;3.88;;;;;;;15.96;68.49;102150.63;5036887;28;20091;-82
2022/10/30 00:45:08;;;;;;;4.95;3.90;;;;;;;15.96;68.39;102152.34;5039472;28;20469;-82
2022/10/30 00:47:36;;;;;;;6.53;4.47;;;;;;;16.00;68.44;102157.88;5032518;28;20103;-82
2022/10/30 00:50:16;;;;;;;5.70;3.75;;;;;;;16.00;68.35;102149.97;5032122;28;20059;-82
2022/10/30 00:52:49;;;;;;;5.85;3.90;;;;;;;16.01;68.36;102148.25;5067029;28;20025;-83
2022/10/30 00:58:46;;;;;;;6.40;4.00;;;;;;;15.96;68.36;102145.38;5030835;28;20094;-82
2022/10/30 01:01:19;;;;;;;5.20;3.95;;;;;;;15.95;68.12;102122.47;5021302;28;20024;-82
2022/10/30 01:03:45;;;;;;;5.10;3.90;;;;;;;15.99;68.29;102134.97;5028573;28;20516;-83
2022/10/30 01:06:13;;;;;;;5.78;4.00;;;;;;;15.87;68.13;102107.97;5048962;28;20040;-83
2022/10/30 01:08:39;;;;;;;4.53;4.00;;;;;;;15.98;68.08;102130.53;5029392;28;20039;-83
2022/10/30 01:11:05;;;;;;;4.65;3.65;;;;;;;15.98;68.03;102130.53;5045584;28;20116;-83
2022/10/30 01:13:31;;;;;;;4.75;4.00;;;;;;;15.91;68.15;102124.84;5050660;28;20486;-83
2022/10/30 01:16:19;;;;;;;5.68;4.20;;;;;;;15.95;68.24;102127.72;5047777;28;20055;-82
2022/10/30 01:19:28;;;;;;;5.03;3.95;;;;;;;15.91;68.37;102127.50;5042129;28;20105;-84
2022/10/30 01:22:02;;;;;;;6.10;3.67;;;;;;;15.95;68.06;102127.72;5027699;28;20053;-83
2022/10/30 01:24:44;;;;;;;5.60;4.53;;;;;;;15.96;68.17;102124.28;5042983;28;20037;-83
2022/10/30 01:27:10;;;;;;;4.82;4.00;;;;;;;15.92;68.05;102124.00;5031495;28;20025;-83
2022/10/30 01:29:57;;;;;;;5.30;4.07;;;;;;;15.86;68.20;102114.97;5050252;28;20489;-83
2022/10/30 01:32:49;;;;;;;5.15;3.90;;;;;;;15.85;68.37;102115.81;5036341;28;20594;-83
2022/10/30 01:35:24;;;;;;;5.05;4.15;;;;;;;15.88;68.18;102115.06;5049419;28;20146;-83
2022/10/30 01:38:22;;;;;;;4.88;3.78;;;;;;;15.89;68.12;102111.59;5030125;28;20028;-83
2022/10/30 01:40:48;;;;;;;6.00;4.00;;;;;;;15.92;67.86;102113.47;5025735;28;20067;-83
2022/10/30 01:43:14;;;;;;;4.95;4.00;;;;;;;15.75;68.23;102092.41;5033113;28;20017;-83
2022/10/30 01:46:00;;;;;;;4.03;3.33;;;;;;;15.85;68.18;102105.28;5049220;28;20425;-82
2022/10/30 01:48:41;;;;;;;5.32;4.43;;;;;;;15.85;68.01;102102.63;5041307;28;20112;-82
2022/10/30 01:51:12;;;;;;;5.60;3.83;;;;;;;15.85;68.13;102106.97;5043135;28;20032;-81
2022/10/30 01:54:07;;;;;;;5.15;3.95;;;;;;;15.87;68.04;102102.69;5032024;28;20029;-82
2022/10/30 01:56:57;;;;;;;4.57;3.58;;;;;;;15.70;68.04;102078.03;5032369;28;20040;-82
2022/10/30 01:59:28;;;;;;;5.18;3.75;;;;;;;15.86;67.98;102100.91;5038751;28;20036;-82
2022/10/30 02:01:53;;;;;;;5.78;4.20;;;;;;;15.83;68.00;102101.66;5024244;28;20029;-82
2022/10/30 02:04:19;;;;;;;4.60;3.88;;;;;;;15.68;68.25;102078.00;5052031;28;20036;-82
2022/10/30 02:06:45;;;;;;;4.35;3.30;;;;;;;15.74;68.04;102090.59;5035375;28;20029;-82
2022/10/30 02:09:10;;;;;;;5.28;3.70;;;;;;;15.78;67.94;102081.13;5055275;28;20043;-82
2022/10/30 02:11:37;;;;;;;4.55;3.95;;;;;;;15.81;67.89;102097.09;5059476;28;20029;-82
2022/10/30 02:14:05;;;;;;;4.43;3.63;;;;;;;15.83;67.82;102084.91;5041671;28;20033;-82
2022/10/30 02:16:33;;;;;;;4.45;3.70;;;;;;;15.80;67.81;102090.94;5035657;28;20044;-82
2022/10/30 02:19:00;;;;;;;4.28;3.63;;;;;;;15.76;67.89;102085.41;5030613;28;20029;-82
2022/10/30 02:21:26;;;;;;;4.95;3.67;;;;;;;15.81;67.68;102097.09;5055490;28;20024;-82
2022/10/30 02:23:52;;;;;;;4.03;3.50;;;;;;;15.80;67.56;102095.31;5052624;28;20406;-82
2022/10/30 02:26:17;;;;;;;5.50;3.80;;;;;;;15.79;67.66;102097.03;5048998;28;20056;-82
2022/10/30 02:28:43;;;;;;;5.15;4.07;;;;;;;15.83;67.68;102093.75;5039439;28;20026;-82
2022/10/30 02:31:08;;;;;;;4.97;3.88;;;;;;;15.81;67.62;102100.66;5053084;28;20418;-83
2022/10/30 02:33:34;;;;;;;3.92;3.38;;;;;;;15.69;67.54;102078.88;5053776;28;20070;-82
2022/10/30 02:35:59;;;;;;;4.93;3.95;;;;;;;15.77;67.81;102089.84;5049571;28;20029;-82
2022/10/30 02:38:25;;;;;;;4.30;3.55;;;;;;;15.75;67.66;102088.88;5044877;28;20123;-82
2022/10/30 02:40:50;;;;;;;4.57;3.80;;;;;;;15.77;67.62;102084.59;5046149;28;20029;-82
2022/10/30 02:43:16;;;;;;;4.43;3.53;;;;;;;15.78;67.46;102086.41;5042051;28;20025;-82
2022/10/30 02:45:42;;;;;;;5.15;3.78;;;;;;;15.73;67.51;102080.00;5026135;28;20079;-82
2022/10/30 02:48:07;;;;;;;6.65;3.95;;;;;;;15.76;67.61;102088.06;5045223;28;20056;-82
2022/10/30 02:50:33;;;;;;;4.97;3.67;;;;;;;15.74;67.76;102092.31;5050851;28;20045;-82
2022/10/30 02:52:58;;;;;;;4.85;3.70;;;;;;;15.76;67.62;102094.22;5036288;28;20052;-83
2022/10/30 02:55:24;;;;;;;5.38;3.63;;;;;;;15.75;67.61;102086.25;5041173;28;20028;-82
2022/10/30 02:57:50;;;;;;;3.80;3.40;;;;;;;15.71;67.76;102092.16;5046988;28;20021;-83
2022/10/30 03:00:15;;;;;;;3.53;3.00;;;;;;;15.65;67.87;102071.63;5041749;28;20529;-81
2022/10/30 03:02:41;;;;;;;4.75;3.67;;;;;;;15.65;67.77;102079.53;5043473;28;20028;-83
2022/10/30 03:05:07;;;;;;;4.63;3.85;;;;;;;15.70;67.58;102088.59;5052859;28;20029;-82
2022/10/30 03:07:32;;;;;;;4.82;3.40;;;;;;;15.71;67.66;102089.50;5044337;28;20033;-83
2022/10/30 03:09:58;;;;;;;5.75;3.58;;;;;;;15.52;67.72;102064.81;5047341;28;20025;-83
2022/10/30 03:12:24;;;;;;;5.57;3.60;;;;;;;15.66;67.71;102094.50;5040511;28;20076;-83
2022/10/30 03:14:49;;;;;;;4.65;3.83;;;;;;;15.64;67.89;102097.06;5039557;28;20071;-84
2022/10/30 03:17:15;;;;;;;4.15;3.63;;;;;;;15.66;67.92;102091.88;5046635;28;20021;-83
2022/10/30 03:19:40;;;;;;;4.10;3.70;;;;;;;15.65;67.77;102083.06;5043189;28;20078;-82
2022/10/30 03:22:06;;;;;;;4.68;3.80;;;;;;;15.61;67.59;102073.19;5037215;28;20045;-83
2022/10/30 03:24:31;;;;;;;4.60;3.90;;;;;;;15.47;67.43;102046.13;5040121;28;20033;-83
2022/10/30 03:26:57;;;;;;;4.78;3.58;;;;;;;15.65;67.51;102075.16;5051915;28;20033;-82
2022/10/30 03:29:22;;;;;;;6.45;3.78;;;;;;;15.55;67.71;102054.41;5046410;28;20076;-83
2022/10/30 03:31:48;;;;;;;4.70;3.67;;;;;;;15.62;67.68;102061.84;5046624;28;20037;-83
2022/10/30 03:34:14;;;;;;;4.13;3.45;;;;;;;15.66;67.77;102069.09;5049302;28;20037;-83
2022/10/30 03:36:39;;;;;;;4.15;3.53;;;;;;;15.63;67.77;102068.00;5048719;28;20032;-84
2022/10/30 03:39:05;;;;;;;4.95;3.72;;;;;;;15.48;67.72;102061.09;5048917;28;20102;-83
2022/10/30 03:41:30;;;;;;;4.40;3.38;;;;;;;15.53;67.95;102061.34;5042462;28;20033;-83
2022/10/30 03:43:56;;;;;;;4.22;3.60;;;;;;;15.65;67.66;102069.00;5044321;28;20029;-82
2022/10/30 03:46:21;;;;;;;3.70;3.28;;;;;;;15.58;67.58;102061.59;5037544;28;20030;-82
2022/10/30 03:48:48;;;;;;;5.75;3.70;;;;;;;15.61;67.49;102067.03;5032452;28;20030;-83
2022/10/30 03:51:14;;;;;;;4.18;3.45;;;;;;;15.60;67.89;102062.56;5049541;28;20486;-83
2022/10/30 03:53:40;;;;;;;4.50;3.60;;;;;;;15.61;67.57;102064.38;5043315;28;20087;-83
2022/10/30 03:56:06;;;;;;;3.67;3.33;;;;;;;15.45;67.55;102041.56;5044228;28;20036;-83
2022/10/30 03:58:32;;;;;;;4.60;3.50;;;;;;;15.52;68.11;102067.44;5044993;28;20107;-82
2022/10/30 04:01:01;;;;;;;4.88;3.50;;;;;;;15.51;67.81;102056.81;5050793;28;20492;-82
2022/10/30 04:03:27;;;;;;;4.53;3.63;;;;;;;15.46;67.79;102057.47;5033506;28;20053;-81
2022/10/30 04:05:53;;;;;;;3.90;3.22;;;;;;;15.55;67.54;102070.22;5032415;28;20528;-81
2022/10/30 04:08:18;;;;;;;3.63;3.13;;;;;;;15.56;67.39;102068.53;5050802;28;20041;-82
2022/10/30 04:10:46;;;;;;;6.20;3.72;;;;;;;15.56;67.32;102065.88;5047326;28;20029;-81
2022/10/30 04:13:13;;;;;;;4.95;3.58;;;;;;;15.48;67.51;102063.72;5028596;28;20119;-81
2022/10/30 04:15:39;;;;;;;6.53;3.70;;;;;;;15.50;67.77;102057.66;5024235;28;20104;-82
2022/10/30 04:18:05;;;;;;;5.10;4.22;;;;;;;15.52;67.75;102064.81;5045347;28;20505;-83
2022/10/30 04:20:31;;;;;;;7.30;4.95;;;;;;;15.50;67.61;102068.19;5030038;28;20064;-82
2022/10/30 04:23:02;;;;;;;6.20;4.75;;;;;;;15.50;67.56;102061.19;5040434;28;20072;-83
2022/10/30 04:25:29;;;;;;;7.03;4.72;;;;;;;15.50;67.64;102060.28;5032733;28;20124;-82
2022/10/30 04:27:55;;;;;;;7.82;4.57;;;;;;;15.50;67.32;102055.91;5044916;28;20037;-83
2022/10/30 04:30:22;;;;;;;6.80;4.72;;;;;;;15.43;67.57;102059.94;5032874;28;20039;-82
2022/10/30 04:32:55;;;;;;;7.22;4.63;;;;;;;15.46;67.39;102059.19;5025692;28;20040;-83
2022/10/30 04:35:23;;;;;;;6.15;4.65;;;;;;;15.39;67.48;102052.69;5049725;28;20401;-83
2022/10/30 04:37:56;;;;;;;6.07;4.70;;;;;;;15.50;67.43;102062.91;5040283;28;20083;-82
2022/10/30 04:40:23;;;;;;;6.03;4.15;;;;;;;15.35;67.44;102040.19;5040345;28;20040;-82
2022/10/30 04:42:48;;;;;;;7.47;4.88;;;;;;;15.47;67.08;102043.50;5053953;28;20028;-82
2022/10/30 04:45:14;;;;;;;6.90;4.82;;;;;;;15.48;67.16;102047.94;5050049;28;20036;-82
2022/10/30 04:47:40;;;;;;;6.13;4.63;;;;;;;15.45;67.48;102055.66;5035779;28;20056;-83
2022/10/30 04:50:06;;;;;;;7.55;4.88;;;;;;;15.44;67.52;102053.84;5053759;28;20020;-83
2022/10/30 04:52:31;;;;;;;6.55;4.70;;;;;;;15.42;67.64;102052.84;5051274;28;20116;-83
2022/10/30 04:54:57;;;;;;;7.40;4.82;;;;;;;15.41;67.18;102032.63;5043942;28;20025;-83
2022/10/30 04:57:22;;;;;;;8.60;4.55;;;;;;;15.41;67.22;102045.78;5044885;28;20060;-83
2022/10/30 04:59:48;;;;;;;6.32;4.55;;;;;;;15.39;67.67;102060.59;5039787;28;20051;-83
2022/10/30 05:02:14;;;;;;;7.07;4.68;;;;;;;15.39;67.46;102059.69;5050208;28;20055;-83
2022/10/30 05:04:39;;;;;;;7.00;4.63;;;;;;;15.36;67.43;102055.13;5044544;28;20021;-84
2022/10/30 05:07:06;;;;;;;6.47;4.50;;;;;;;15.45;67.57;102067.91;5035835;28;20033;-83
2022/10/30 05:09:31;;;;;;;;;;;;;;;15.40;67.35;102072.03;5046415;28;20033;-83
2022/10/30 05:11:57;;;;;;;6.40;4.53;;;;;;;15.41;67.45;102073.84;5026808;28;20393;-82
2022/10/30 05:14:22;;;;;;;5.50;4.28;;;;;;;15.41;67.26;102073.84;5043458;28;20296;-83
2022/10/30 05:16:48;;;;;;;6.45;4.72;;;;;;;15.34;67.50;102069.94;5044426;28;20040;-83
2022/10/30 05:19:13;;;;;;;6.07;4.20;;;;;;;15.33;67.40;102069.88;5049028;28;20031;-82
2022/10/30 05:21:39;;;;;;;6.50;4.60;;;;;;;15.33;67.77;102073.41;5046090;28;20064;-83
2022/10/30 05:24:05;;;;;;;6.53;4.30;;;;;;;15.35;67.23;102063.88;5048102;28;20029;-81
2022/10/30 05:26:31;;;;;;;6.90;4.53;;;;;;;15.27;67.82;102055.53;5039776;28;20354;-82
2022/10/30 05:28:56;;;;;;;9.35;4.95;;;;;;;15.35;67.11;102069.13;5042052;28;20032;-82
2022/10/30 05:31:22;;;;;;;10.02;7.03;;;;;;;15.36;67.10;102065.66;5051133;28;20035;-83
2022/10/30 05:33:47;;;;;;;8.40;6.05;;;;;;;15.36;67.10;102073.56;5060950;28;20036;-83
2022/10/30 05:36:13;;;;;;;8.73;6.03;;;;;;;15.26;66.64;102053.75;5050901;28;20028;-82
2022/10/30 05:38:38;;;;;;;7.57;5.30;;;;;;;15.31;67.08;102075.06;5047129;28;20546;-83
2022/10/30 05:41:07;;;;;;;6.32;5.13;;;;;;;15.27;67.44;102075.69;5051397;28;20505;-83
2022/10/30 05:43:33;;;;;;;6.70;5.10;;;;;;;15.26;67.28;102063.34;5041317;28;20032;-82
2022/10/30 05:45:58;;;;;;;7.28;5.30;;;;;;;15.24;67.21;102067.66;5051892;28;20035;-83
2022/10/30 05:48:24;;;;;;;6.53;5.22;;;;;;;15.29;67.25;102075.78;5051810;28;20037;-82
2022/10/30 05:50:49;;;;;;;6.80;4.95;;;;;;;15.31;67.17;102068.88;5053127;28;20111;-83
2022/10/30 05:53:15;;;;;;;6.57;5.03;;;;;;;15.33;67.18;102073.41;5045082;28;20047;-83
2022/10/30 05:55:40;;;;;;;7.18;5.10;;;;;;;15.35;67.01;102068.25;5044468;28;20037;-83
2022/10/30 05:58:12;;;;;;;6.72;4.75;;;;;;;15.35;67.17;102074.41;5053691;28;20029;-83
2022/10/30 06:00:39;;;;;;;7.28;4.90;;;;;;;15.31;67.26;102074.16;5016650;28;20032;-83
2022/10/30 06:03:07;;;;;;;6.35;4.97;;;;;;;15.31;67.42;102074.16;5058616;28;20107;-83
2022/10/30 06:05:34;;;;;;;6.53;4.55;;;;;;;15.18;67.38;102049.78;5053391;28;20020;-82
2022/10/30 06:08:00;;;;;;;8.13;4.88;;;;;;;15.29;67.59;102074.06;5030844;28;20059;-83
2022/10/30 06:10:26;;;;;;;;;;;;;;;15.30;67.41;102078.47;5024974;28;20079;-83
2022/10/30 06:13:02;;;;;;;6.28;4.90;;;;;;;15.26;67.64;102065.97;5047493;28;19916;-83
2022/10/30 06:15:29;;;;;;;5.82;4.57;;;;;;;15.24;67.74;102073.81;5052732;28;20009;-81
2022/10/30 06:17:55;;;;;;;5.13;4.35;;;;;;;15.20;67.68;102071.81;5032342;28;20106;-81
2022/10/30 06:20:23;;;;;;;6.10;4.55;;;;;;;15.26;67.47;102081.75;5038003;28;20033;-83
2022/10/30 06:23:01;;;;;;;5.72;4.65;;;;;;;15.25;67.70;102078.22;5058642;28;20048;-82
2022/10/30 06:25:28;;;;;;;7.57;5.35;;;;;;;15.27;67.65;102080.97;5047359;28;20482;-81
2022/10/30 06:27:54;;;;;;;7.90;5.13;;;;;;;15.29;67.63;102076.69;5049502;28;20035;-82
2022/10/30 06:30:20;;;;;;;7.43;4.65;;;;;;;15.31;67.42;102077.69;5049453;28;20104;-82
2022/10/30 06:32:46;;;;;;;6.65;5.07;;;;;;;15.25;67.71;102069.44;5044646;28;20128;-81
2022/10/30 06:35:12;;;;;;;6.28;4.78;;;;;;;15.21;67.69;102070.09;5046290;28;20026;-82
2022/10/30 06:37:43;;;;;;;7.72;5.00;;;;;;;15.16;67.84;102072.47;5048792;28;20032;-82
2022/10/30 06:40:09;;;;;;;7.28;5.13;;;;;;;15.15;67.94;102057.47;5051334;28;20111;-81
2022/10/30 06:42:44;;;;;;;;;;;;;;;15.25;67.73;102062.44;5052595;28;20409;-81
2022/10/30 06:45:11;;;;;;;6.75;4.53;;;;;;;15.24;67.88;102067.66;5046516;28;19913;-81
2022/10/30 06:47:37;;;;;;;6.47;4.63;;;;;;;15.19;67.93;102048.94;5035157;28;20037;-82
2022/10/30 06:50:04;;;;;;;8.00;4.80;;;;;;;15.20;67.90;102061.31;5029407;28;20025;-82
2022/10/30 06:52:30;;;;;;;6.10;4.50;;;;;;;15.24;67.91;102057.13;5035576;28;20490;-81
2022/10/30 06:54:56;;;;;;;6.47;4.55;;;;;;;15.20;67.83;102048.13;5051089;28;20032;-83
2022/10/30 06:57:21;;;;;;;7.47;4.88;;;;;;;14.79;67.82;101969.53;5047135;28;20032;-83
2022/10/30 06:59:47;;;;;;;6.03;4.05;;;;;;;15.23;67.82;102048.28;5050947;28;20056;-83
2022/10/30 07:02:12;;;;;;;5.93;4.53;;;;;;;15.25;67.82;102054.56;5037646;28;20035;-82
2022/10/30 07:04:38;;;;;;;6.38;4.68;;;;;;;15.18;68.13;102041.00;5031512;28;20110;-82
2022/10/30 07:07:03;;;;;;;5.78;4.70;;;;;;;15.06;68.11;102023.69;5045104;28;20033;-82
2022/10/30 07:09:29;;;;;;;5.93;4.60;;;;;;;15.11;68.23;102028.28;5036610;28;20087;-82
2022/10/30 07:11:54;;;;;;;6.57;4.82;;;;;;;15.18;68.08;102043.63;5052917;28;20043;-85
2022/10/30 07:14:20;;;;;;;6.35;4.60;;;;;;;15.14;68.43;102045.16;5036718;28;20032;-84
2022/10/30 07:16:46;;;;;;;8.07;4.22;;;;;;;15.25;67.98;102035.22;5050314;28;20040;-82
2022/10/30 07:19:12;;;;;;;9.02;4.63;;;;;;;15.09;67.96;102022.03;5041916;28;20025;-82
2022/10/30 07:21:37;;;;;;;7.03;4.82;;;;;;;14.73;68.19;101962.22;5046906;28;20041;-85
2022/10/30 07:24:04;;;;;;;7.05;4.38;;;;;;;15.06;68.14;102007.88;5042633;28;20075;-83
2022/10/30 07:26:29;;;;;;;5.85;4.45;;;;;;;15.07;67.84;101996.56;5045233;28;20032;-85
2022/10/30 07:28:55;;;;;;;5.90;4.47;;;;;;;15.12;67.96;101988.91;5047168;28;20021;-84
2022/10/30 07:31:20;;;;;;;6.65;4.40;;;;;;;15.10;68.23;102013.34;5032382;28;20451;-87
2022/10/30 07:33:46;;;;;;;7.45;4.32;;;;;;;15.10;68.12;101995.81;5046064;28;20048;-83
2022/10/30 07:36:13;;;;;;;5.80;4.38;;;;;;;15.07;68.29;101998.28;5045473;28;20654;-83
2022/10/30 07:38:39;;;;;;;6.03;4.22;;;;;;;15.14;68.19;102012.69;5047588;28;20024;-84
2022/10/30 07:41:05;;;;;;;6.60;4.20;;;;;;;15.04;68.09;101990.22;5028236;28;20425;-83
2022/10/30 07:43:30;;;;;;;7.55;4.60;;;;;;;15.15;68.21;102003.97;5035382;28;20401;-84
2022/10/30 07:45:56;;;;;;;6.45;4.65;;;;;;;15.26;68.29;102021.22;5044527;28;20486;-83
2022/10/30 07:48:22;;;;;;;6.90;4.80;;;;;;;15.12;68.04;101996.81;5029692;28;20075;-82
2022/10/30 07:50:47;;;;;;;5.68;4.20;;;;;;;15.22;68.27;102016.66;5040825;28;20092;-83
2022/10/30 07:53:13;;;;;;;6.43;4.47;;;;;;;15.11;68.17;102001.97;5039517;28;20075;-83
2022/10/30 07:55:41;;;;;;;36.08;5.80;;;;;;;15.28;68.29;102011.69;5050505;28;20078;-83
2022/10/30 07:58:06;;;;;;;11.43;4.70;;;;;;;15.37;69.49;102021.84;5032903;28;20464;-85
2022/10/30 08:00:32;;;;;;;8.07;5.00;;;;;;;15.34;68.42;102017.31;5041068;28;20024;-85
2022/10/30 08:03:03;;;;;;;82.10;9.48;;;;;;;15.50;69.12;102015.53;5040455;28;20033;-94
2022/10/30 08:05:29;;;;;;;48.75;8.40;;;;;;;15.37;68.17;102000.78;5040286;28;20032;-85
2022/10/30 08:07:55;;;;;;;39.85;8.10;;;;;;;15.27;68.65;102002.00;5038555;28;20025;-85
2022/10/30 08:10:21;;;;;;;38.75;8.20;;;;;;;15.26;68.53;101990.59;5015887;28;20040;-84
2022/10/30 08:12:47;;;;;;;31.00;7.85;;;;;;;15.21;68.71;101981.50;5040878;28;20036;-84
2022/10/30 08:15:13;;;;;;;33.60;6.90;;;;;;;15.35;68.59;101994.53;5049213;28;20029;-82
2022/10/30 08:17:45;;;;;;;;;;;;;;;15.37;68.58;102004.31;5030588;28;20033;-84
2022/10/30 08:20:13;;;;;;;21.55;6.40;;;;;;;15.21;68.66;101972.72;5046344;28;19938;-86
2022/10/30 08:22:52;;;;;;;15.77;6.88;;;;;;;15.18;68.57;101978.72;5049608;28;20179;-85
2022/10/30 08:25:19;;;;;;;18.88;5.88;;;;;;;15.13;68.84;101974.91;5027620;28;20025;-83
2022/10/30 08:27:50;;;;;;;25.02;6.57;;;;;;;15.24;68.78;101983.44;5049883;28;20027;-91
2022/10/30 08:30:16;;;;;;;24.00;6.47;;;;;;;15.39;68.91;102005.31;5035355;28;20040;-83
2022/10/30 08:32:41;;;;;;;25.23;6.78;;;;;;;15.31;68.68;102000.47;5029867;28;20025;-84
2022/10/30 08:35:07;;;;;;;21.55;6.57;;;;;;;15.37;68.67;102004.31;5048729;28;20119;-85
2022/10/30 08:37:33;;;;;;;18.70;5.90;;;;;;;15.23;68.63;101978.97;5060798;28;20079;-83
2022/10/30 08:39:58;;;;;;;15.15;6.57;;;;;;;15.06;68.80;101943.84;5039810;28;20076;-83
2022/10/30 08:42:24;;;;;;;21.85;7.22;;;;;;;15.38;68.75;101992.06;5047489;28;20029;-84
2022/10/30 08:44:49;;;;;;;20.23;6.68;;;;;;;15.39;68.63;101988.63;5043126;28;20038;-84
2022/10/30 08:47:15;;;;;;;19.15;6.00;;;;;;;15.27;69.08;101973.97;5048522;28;20024;-84
2022/10/30 08:49:42;;;;;;;15.63;5.45;;;;;;;15.27;69.25;101979.22;5050395;28;20037;-85
2022/10/30 08:52:08;;;;;;;13.73;5.82;;;;;;;15.20;69.20;101966.56;5051078;28;20032;-84
2022/10/30 08:54:35;;;;;;;16.90;5.95;;;;;;;15.11;69.26;101952.88;5029083;28;20094;-82
2022/10/30 08:57:01;;;;;;;19.35;6.40;;;;;;;15.08;69.36;101942.22;5049250;28;20044;-85
2022/10/30 08:59:27;;;;;;;14.77;6.22;;;;;;;15.08;69.42;101934.31;5050329;28;20583;-84
2022/10/30 09:01:52;;;;;;;15.77;6.38;;;;;;;15.09;69.22;101933.50;5028962;28;20111;-84
2022/10/30 09:04:18;;;;;;;11.77;5.60;;;;;;;15.26;68.94;101952.81;5047464;28;20041;-85
2022/10/30 09:06:44;;;;;;;14.18;5.80;;;;;;;15.09;69.50;101922.06;5032356;28;20478;-85
2022/10/30 09:09:10;;;;;;;14.48;5.78;;;;;;;15.30;69.29;101957.41;5050720;28;20025;-85
2022/10/30 09:11:36;;;;;;;9.45;5.60;;;;;;;15.29;69.25;101955.63;5048920;28;20067;-84
2022/10/30 09:14:02;;;;;;;10.00;5.63;;;;;;;15.28;69.16;101964.31;5034247;28;20048;-85
2022/10/30 09:16:27;;;;;;;13.32;5.80;;;;;;;15.10;69.14;101922.16;5014537;28;20033;-81
2022/10/30 09:18:53;;;;;;;13.65;5.70;;;;;;;15.23;69.17;101934.25;5052739;28;20547;-80
2022/10/30 09:21:19;;;;;;;17.13;5.80;;;;;;;15.31;69.28;101950.44;5055335;28;20578;-80
2022/10/30 09:23:44;;;;;;;10.27;5.57;;;;;;;15.22;69.49;101922.81;5033750;28;20514;-81
2022/10/30 09:26:10;;;;;;;14.70;5.78;;;;;;;15.28;69.18;101924.84;5058388;28;20033;-82
2022/10/30 09:28:36;;;;;;;12.32;5.50;;;;;;;15.10;69.49;101901.09;5030204;28;20041;-81
2022/10/30 09:31:02;;;;;;;10.73;5.45;;;;;;;15.33;69.26;101927.75;5038013;28;20016;-81
2022/10/30 09:33:28;;;;;;;11.57;5.53;;;;;;;15.31;69.66;101917.13;5033856;28;20036;-82
2022/10/30 09:35:53;;;;;;;11.40;5.65;;;;;;;15.20;69.50;101910.41;5053758;28;20093;-81
2022/10/30 09:38:19;;;;;;;14.15;5.82;;;;;;;15.36;68.90;101930.53;5049891;28;20033;-81
2022/10/30 09:41:09;;;;;;;14.52;6.43;;;;;;;15.38;69.26;101928.88;5037174;28;20060;-80
2022/10/30 09:43:58;;;;;;;9.55;5.75;;;;;;;15.34;69.50;101912.03;5042266;28;20439;-82
2022/10/30 09:46:51;;;;;;;11.80;5.35;;;;;;;15.38;69.51;101914.00;5030992;28;20037;-86
2022/10/30 09:49:47;;;;;;;9.10;5.38;;;;;;;15.37;69.18;101920.09;5021720;28;20037;-82
2022/10/30 09:52:25;;;;;;;11.93;5.43;;;;;;;15.35;69.95;101907.69;5021461;28;20128;-82
2022/10/30 09:55:09;;;;;;;13.93;5.55;;;;;;;15.34;69.99;101904.13;5029440;28;20013;-80
2022/10/30 09:57:54;;;;;;;12.52;5.90;;;;;;;15.34;70.36;101906.75;5028467;28;20021;-83
2022/10/30 10:00:22;;;;;;;10.85;5.93;;;;;;;15.34;69.90;101906.75;5016095;28;20036;-81
2022/10/30 10:03:26;;;;;;;10.13;5.30;;;;;;;15.34;70.15;101898.84;5049985;28;20021;-81
2022/10/30 10:05:55;;;;;;;10.50;5.40;;;;;;;15.24;69.90;101881.69;4952471;28;20424;-81
2022/10/30 10:08:36;;;;;;;13.48;4.90;;;;;;;15.24;69.93;101865.91;4970046;28;20110;-81
2022/10/30 10:11:13;;;;;;;7.70;4.97;;;;;;;15.18;70.22;101864.69;5014041;28;20032;-81
2022/10/30 10:14:11;;;;;;;8.98;5.13;;;;;;;15.36;70.17;101885.78;5049508;28;20025;-82
2022/10/30 10:16:38;;;;;;;8.38;5.45;;;;;;;15.27;70.52;101879.22;5034724;28;20425;-80
2022/10/30 10:19:22;;;;;;;11.60;5.47;;;;;;;15.36;70.15;101880.53;5031551;28;20033;-80
2022/10/30 10:21:57;;;;;;;9.90;5.47;;;;;;;15.36;70.07;101876.16;5031868;28;20029;-80
2022/10/30 10:24:25;;;;;;;7.28;5.22;;;;;;;15.24;70.07;101855.38;5050340;28;20044;-80
2022/10/30 10:27:09;;;;;;;10.10;4.90;;;;;;;15.38;70.01;101871.88;5034456;28;20100;-80
2022/10/30 10:30:07;;;;;;;9.63;5.60;;;;;;;15.45;69.79;101875.72;5048936;28;20017;-81
2022/10/30 10:32:56;;;;;;;9.73;5.47;;;;;;;15.32;69.99;101849.59;5018569;28;20071;-80
2022/10/30 10:36:03;;;;;;;10.95;5.25;;;;;;;15.33;70.33;101848.78;5046453;28;20021;-84
2022/10/30 10:38:48;;;;;;;10.98;5.53;;;;;;;15.44;70.19;101863.41;5036617;28;20055;-81
2022/10/30 10:41:30;;;;;;;7.78;5.00;;;;;;;15.34;69.99;101840.06;5035547;28;20036;-83
2022/10/30 10:44:20;;;;;;;8.73;5.35;;;;;;;15.39;70.31;101860.53;5032043;28;20022;-82
2022/10/30 10:47:06;;;;;;;10.90;5.72;;;;;;;15.17;69.71;101800.59;5044429;28;20025;-85
2022/10/30 10:50:12;;;;;;;8.85;5.32;;;;;;;15.43;70.10;101845.78;5048255;28;20028;-83
2022/10/30 10:52:52;;;;;;;8.55;5.20;;;;;;;15.37;70.23;101846.41;5042739;28;20044;-82
2022/10/30 10:55:20;;;;;;;10.85;5.03;;;;;;;15.38;70.19;101842.03;5039044;28;20024;-81
2022/10/30 10:57:51;;;;;;;9.27;5.18;;;;;;;15.36;70.73;101844.56;5014745;28;20045;-80
2022/10/30 11:00:25;;;;;;;9.60;5.03;;;;;;;15.23;70.60;101819.34;5028422;28;20513;-82
2022/10/30 11:03:28;;;;;;;8.82;5.25;;;;;;;15.37;70.52;101827.97;5022531;28;20025;-81
2022/10/30 11:06:20;;;;;;;8.30;5.25;;;;;;;15.35;70.63;101828.72;5048967;28;20128;-81
2022/10/30 11:08:46;;;;;;;9.45;5.20;;;;;;;15.36;70.79;101818.25;5027662;28;20043;-82
2022/10/30 11:11:11;;;;;;;;;;;;;;;15.36;70.81;101823.50;5061527;28;20029;-81
2022/10/30 11:13:39;;;;;;;8.80;5.15;;;;;;;15.38;70.58;101811.34;5035873;28;19928;-81
2022/10/30 11:16:20;;;;;;;7.13;5.05;;;;;;;15.36;70.92;101817.34;5035552;28;20074;-81
2022/10/30 11:18:46;;;;;;;8.82;5.18;;;;;;;15.35;71.08;101819.09;5041456;28;20354;-81
2022/10/30 11:21:16;;;;;;;;;;;;;;;15.38;70.69;101808.72;5051775;28;20024;-82
2022/10/30 11:23:44;;;;;;;8.77;5.28;;;;;;;15.24;70.97;101786.06;5031938;28;19917;-81
2022/10/30 11:26:16;;;;;;;10.07;5.80;;;;;;;15.23;71.32;101795.66;5039284;28;20406;-82
2022/10/30 11:28:52;;;;;;;7.80;5.38;;;;;;;15.30;71.25;101796.00;5028832;28;20064;-81
2022/10/30 11:31:22;;;;;;;9.20;4.95;;;;;;;15.32;71.23;101794.34;5048128;28;20029;-80
2022/10/30 11:33:48;;;;;;;6.20;4.88;;;;;;;15.27;71.17;101773.06;5030555;28;20033;-81
2022/10/30 11:36:16;;;;;;;9.60;5.43;;;;;;;15.39;70.79;101786.84;5035504;28;20036;-81
2022/10/30 11:38:42;;;;;;;8.98;5.70;;;;;;;15.42;70.66;101792.25;5030429;28;20038;-81